sensor_id;sensor_type;location;lat;lon;timestamp;pressure;altitude;pressure_sealevel;temperature;humidity
7168;BME280;3625;51.762;14.320;2022-08-19T00:02:11;99809.84;;;22.45;100.00
7168;BME280;3625;51.762;14.320;2022-08-19T00:04:40;99827.34;;;22.51;100.00
7168;BME280;3625;51.762;14.320;2022-08-19T00:07:09;99826.00;;;22.45;100.00
7168;BME280;3625;51.762;14.320;2022-08-19T00:09:38;99822.00;;;22.40;100.00
7168;BME280;3625;51.762;14.320;2022-08-19T00:12:07;99818.78;;;22.35;100.00
7168;BME280;3625;51.762;14.320;2022-08-19T00:14:37;99830.06;;;22.29;100.00
7168;BME280;3625;51.762;14.320;2022-08-19T00:17:07;99824.06;;;22.25;100.00
7168;BME280;3625;51.762;14.320;2022-08-19T00:19:38;99831.16;;;22.15;100.00
7168;BME280;3625;51.762;14.320;2022-08-19T00:22:08;99833.00;;;22.14;100.00
7168;BME280;3625;51.762;14.320;2022-08-19T00:24:37;99835.09;;;22.11;100.00
7168;BME280;3625;51.762;14.320;2022-08-19T00:27:17;99822.72;;;22.08;100.00
7168;BME280;3625;51.762;14.320;2022-08-19T00:29:53;99817.34;;;22.08;100.00
7168;BME280;3625;51.762;14.320;2022-08-19T00:32:22;99816.25;;;22.11;100.00
7168;BME280;3625;51.762;14.320;2022-08-19T00:34:54;99785.97;;;21.96;100.00
7168;BME280;3625;51.762;14.320;2022-08-19T00:37:24;99755.34;;;21.75;100.00
7168;BME280;3625;51.762;14.320;2022-08-19T00:39:54;99819.91;;;22.10;100.00
7168;BME280;3625;51.762;14.320;2022-08-19T00:42:23;99803.22;;;21.94;100.00
7168;BME280;3625;51.762;14.320;2022-08-19T00:44:55;99818.44;;;22.06;100.00
7168;BME280;3625;51.762;14.320;2022-08-19T00:47:24;99812.06;;;22.07;100.00
7168;BME280;3625;51.762;14.320;2022-08-19T00:49:57;99812.06;;;22.07;100.00
7168;BME280;3625;51.762;14.320;2022-08-19T00:52:31;99811.34;;;22.05;100.00
7168;BME280;3625;51.762;14.320;2022-08-19T00:55:02;99816.00;;;22.03;100.00
7168;BME280;3625;51.762;14.320;2022-08-19T00:57:39;99792.69;;;21.91;100.00
7168;BME280;3625;51.762;14.320;2022-08-19T01:00:13;99806.09;;;22.03;100.00
7168;BME280;3625;51.762;14.320;2022-08-19T01:02:43;99806.69;;;22.07;100.00
7168;BME280;3625;51.762;14.320;2022-08-19T01:05:19;99805.59;;;22.09;100.00
7168;BME280;3625;51.762;14.320;2022-08-19T01:07:50;99789.19;;;22.01;100.00
7168;BME280;3625;51.762;14.320;2022-08-19T01:10:23;99804.72;;;22.09;100.00
7168;BME280;3625;51.762;14.320;2022-08-19T01:12:55;99771.31;;;22.00;100.00
7168;BME280;3625;51.762;14.320;2022-08-19T01:15:29;99794.56;;;22.12;100.00
7168;BME280;3625;51.762;14.320;2022-08-19T01:18:08;99730.75;;;21.79;100.00
7168;BME280;3625;51.762;14.320;2022-08-19T01:20:41;99786.09;;;22.17;100.00
7168;BME280;3625;51.762;14.320;2022-08-19T01:23:13;99749.25;;;21.95;100.00
7168;BME280;3625;51.762;14.320;2022-08-19T01:25:47;99786.22;;;22.15;100.00
7168;BME280;3625;51.762;14.320;2022-08-19T01:28:20;99787.47;;;22.11;100.00
7168;BME280;3625;51.762;14.320;2022-08-19T01:31:10;99800.19;;;22.09;100.00
7168;BME280;3625;51.762;14.320;2022-08-19T01:33:57;99808.50;;;22.06;100.00
7168;BME280;3625;51.762;14.320;2022-08-19T01:36:30;99797.97;;;21.92;100.00
7168;BME280;3625;51.762;14.320;2022-08-19T01:39:12;99789.88;;;21.92;100.00
7168;BME280;3625;51.762;14.320;2022-08-19T01:41:41;99774.22;;;21.75;100.00
7168;BME280;3625;51.762;14.320;2022-08-19T01:44:10;99784.47;;;21.81;100.00
7168;BME280;3625;51.762;14.320;2022-08-19T01:46:47;99753.38;;;21.55;100.00
7168;BME280;3625;51.762;14.320;2022-08-19T01:49:20;99751.78;;;21.41;100.00
7168;BME280;3625;51.762;14.320;2022-08-19T01:51:50;99803.69;;;21.65;100.00
7168;BME280;3625;51.762;14.320;2022-08-19T01:54:22;99808.69;;;21.59;100.00
7168;BME280;3625;51.762;14.320;2022-08-19T01:56:58;99814.81;;;21.50;100.00
7168;BME280;3625;51.762;14.320;2022-08-19T01:59:29;99784.28;;;21.27;100.00
7168;BME280;3625;51.762;14.320;2022-08-19T02:01:58;99816.84;;;21.35;100.00
7168;BME280;3625;51.762;14.320;2022-08-19T02:04:27;99813.03;;;21.26;100.00
7168;BME280;3625;51.762;14.320;2022-08-19T02:06:57;99798.19;;;21.21;100.00
7168;BME280;3625;51.762;14.320;2022-08-19T02:09:28;99798.66;;;21.15;100.00
7168;BME280;3625;51.762;14.320;2022-08-19T02:11:57;99788.69;;;21.04;100.00
7168;BME280;3625;51.762;14.320;2022-08-19T02:14:25;99772.75;;;20.90;100.00
7168;BME280;3625;51.762;14.320;2022-08-19T02:16:54;99804.50;;;21.08;100.00
7168;BME280;3625;51.762;14.320;2022-08-19T02:19:23;99805.69;;;21.04;100.00
7168;BME280;3625;51.762;14.320;2022-08-19T02:21:52;99804.34;;;20.99;100.00
7168;BME280;3625;51.762;14.320;2022-08-19T02:24:20;99787.00;;;20.79;100.00
7168;BME280;3625;51.762;14.320;2022-08-19T02:26:51;99794.00;;;20.82;100.00
7168;BME280;3625;51.762;14.320;2022-08-19T02:29:20;99802.91;;;20.82;100.00
7168;BME280;3625;51.762;14.320;2022-08-19T02:31:49;99804.84;;;20.80;100.00
7168;BME280;3625;51.762;14.320;2022-08-19T02:34:18;99773.41;;;20.46;100.00
7168;BME280;3625;51.762;14.320;2022-08-19T02:36:47;99812.56;;;20.61;100.00
7168;BME280;3625;51.762;14.320;2022-08-19T02:39:19;99819.72;;;20.49;100.00
7168;BME280;3625;51.762;14.320;2022-08-19T02:41:46;99818.56;;;20.41;100.00
7168;BME280;3625;51.762;14.320;2022-08-19T02:44:17;99811.47;;;20.40;100.00
7168;BME280;3625;51.762;14.320;2022-08-19T02:46:58;99799.22;;;20.36;100.00
7168;BME280;3625;51.762;14.320;2022-08-19T02:49:27;99806.94;;;20.27;100.00
7168;BME280;3625;51.762;14.320;2022-08-19T02:52:01;99805.69;;;20.20;100.00
7168;BME280;3625;51.762;14.320;2022-08-19T02:54:30;99818.69;;;20.14;100.00
7168;BME280;3625;51.762;14.320;2022-08-19T02:56:59;99821.69;;;20.09;100.00
7168;BME280;3625;51.762;14.320;2022-08-19T02:59:31;99834.06;;;20.12;100.00
7168;BME280;3625;51.762;14.320;2022-08-19T03:02:01;99832.22;;;20.12;100.00
7168;BME280;3625;51.762;14.320;2022-08-19T03:04:29;99822.56;;;20.10;100.00
7168;BME280;3625;51.762;14.320;2022-08-19T03:06:58;99831.38;;;20.12;100.00
7168;BME280;3625;51.762;14.320;2022-08-19T03:09:37;99811.00;;;19.96;100.00
7168;BME280;3625;51.762;14.320;2022-08-19T03:12:06;99837.50;;;20.14;100.00
7168;BME280;3625;51.762;14.320;2022-08-19T03:14:37;99809.88;;;19.99;100.00
7168;BME280;3625;51.762;14.320;2022-08-19T03:17:06;99833.00;;;20.14;100.00
7168;BME280;3625;51.762;14.320;2022-08-19T03:19:35;99837.50;;;20.14;100.00
7168;BME280;3625;51.762;14.320;2022-08-19T03:22:05;99830.16;;;20.16;100.00
7168;BME280;3625;51.762;14.320;2022-08-19T03:24:35;99829.09;;;20.18;100.00
7168;BME280;3625;51.762;14.320;2022-08-19T03:27:04;99818.69;;;20.14;100.00
7168;BME280;3625;51.762;14.320;2022-08-19T03:29:37;99835.75;;;20.25;100.00
7168;BME280;3625;51.762;14.320;2022-08-19T03:32:09;99839.19;;;20.27;100.00
7168;BME280;3625;51.762;14.320;2022-08-19T03:34:59;99840.03;;;20.28;100.00
7168;BME280;3625;51.762;14.320;2022-08-19T03:37:29;99840.91;;;20.28;100.00
7168;BME280;3625;51.762;14.320;2022-08-19T03:39:58;99839.63;;;20.21;100.00
7168;BME280;3625;51.762;14.320;2022-08-19T03:42:26;99854.00;;;20.33;100.00
7168;BME280;3625;51.762;14.320;2022-08-19T03:45:17;99858.75;;;20.29;100.00
7168;BME280;3625;51.762;14.320;2022-08-19T03:47:46;99862.41;;;20.28;100.00
7168;BME280;3625;51.762;14.320;2022-08-19T03:50:15;99844.66;;;20.26;100.00
7168;BME280;3625;51.762;14.320;2022-08-19T03:52:48;99816.97;;;20.13;100.00
7168;BME280;3625;51.762;14.320;2022-08-19T03:55:19;99843.06;;;20.23;100.00
7168;BME280;3625;51.762;14.320;2022-08-19T03:58:23;99850.38;;;20.21;100.00
7168;BME280;3625;51.762;14.320;2022-08-19T04:01:01;99845.00;;;20.21;100.00
7168;BME280;3625;51.762;14.320;2022-08-19T04:03:36;99841.34;;;20.22;100.00
7168;BME280;3625;51.762;14.320;2022-08-19T04:06:19;99840.25;;;20.25;100.00
7168;BME280;3625;51.762;14.320;2022-08-19T04:08:51;99846.38;;;20.27;100.00
7168;BME280;3625;51.762;14.320;2022-08-19T04:11:24;99843.81;;;20.25;100.00
7168;BME280;3625;51.762;14.320;2022-08-19T04:14:13;99843.91;;;20.24;100.00
7168;BME280;3625;51.762;14.320;2022-08-19T04:16:44;99845.63;;;20.25;100.00
7168;BME280;3625;51.762;14.320;2022-08-19T04:19:15;99789.94;;;19.90;100.00
7168;BME280;3625;51.762;14.320;2022-08-19T04:21:47;99853.38;;;20.29;100.00
7168;BME280;3625;51.762;14.320;2022-08-19T04:24:16;99843.38;;;20.31;100.00
7168;BME280;3625;51.762;14.320;2022-08-19T04:26:46;99852.94;;;20.36;100.00
7168;BME280;3625;51.762;14.320;2022-08-19T04:29:18;99852.09;;;20.35;100.00
7168;BME280;3625;51.762;14.320;2022-08-19T04:31:55;99835.97;;;20.35;100.00
7168;BME280;3625;51.762;14.320;2022-08-19T04:34:28;99856.28;;;20.39;100.00
7168;BME280;3625;51.762;14.320;2022-08-19T04:36:58;99859.59;;;20.43;100.00
7168;BME280;3625;51.762;14.320;2022-08-19T04:39:29;99849.09;;;20.40;100.00
7168;BME280;3625;51.762;14.320;2022-08-19T04:42:13;99855.72;;;20.47;100.00
7168;BME280;3625;51.762;14.320;2022-08-19T04:44:59;99858.94;;;20.52;100.00
7168;BME280;3625;51.762;14.320;2022-08-19T04:47:32;99830.47;;;20.49;100.00
7168;BME280;3625;51.762;14.320;2022-08-19T04:50:21;99840.38;;;20.73;100.00
7168;BME280;3625;51.762;14.320;2022-08-19T04:52:51;99839.06;;;20.78;100.00
7168;BME280;3625;51.762;14.320;2022-08-19T04:55:21;99844.09;;;20.83;100.00
7168;BME280;3625;51.762;14.320;2022-08-19T04:57:50;99847.84;;;20.93;100.00
7168;BME280;3625;51.762;14.320;2022-08-19T05:00:18;99847.75;;;21.05;100.00
7168;BME280;3625;51.762;14.320;2022-08-19T05:02:49;99850.72;;;21.14;100.00
7168;BME280;3625;51.762;14.320;2022-08-19T05:05:18;99854.69;;;21.21;100.00
7168;BME280;3625;51.762;14.320;2022-08-19T05:07:47;99855.94;;;21.28;100.00
7168;BME280;3625;51.762;14.320;2022-08-19T05:10:16;99852.81;;;21.34;100.00
7168;BME280;3625;51.762;14.320;2022-08-19T05:12:45;99841.69;;;21.38;100.00
7168;BME280;3625;51.762;14.320;2022-08-19T05:15:14;99832.53;;;21.41;100.00
7168;BME280;3625;51.762;14.320;2022-08-19T05:17:42;99812.19;;;21.26;100.00
7168;BME280;3625;51.762;14.320;2022-08-19T05:20:32;99841.50;;;21.53;100.00
7168;BME280;3625;51.762;14.320;2022-08-19T05:23:18;99852.38;;;21.62;100.00
7168;BME280;3625;51.762;14.320;2022-08-19T05:25:49;99839.19;;;21.59;100.00
7168;BME280;3625;51.762;14.320;2022-08-19T05:28:19;99860.84;;;21.80;100.00
7168;BME280;3625;51.762;14.320;2022-08-19T05:30:48;99856.59;;;21.77;100.00
7168;BME280;3625;51.762;14.320;2022-08-19T05:33:18;99869.09;;;21.78;100.00
7168;BME280;3625;51.762;14.320;2022-08-19T05:35:49;99866.63;;;21.75;100.00
7168;BME280;3625;51.762;14.320;2022-08-19T05:38:18;99876.19;;;21.91;100.00
7168;BME280;3625;51.762;14.320;2022-08-19T05:40:47;99874.59;;;21.88;100.00
7168;BME280;3625;51.762;14.320;2022-08-19T05:43:16;99867.59;;;21.74;100.00
7168;BME280;3625;51.762;14.320;2022-08-19T05:45:45;99884.00;;;21.82;100.00
7168;BME280;3625;51.762;14.320;2022-08-19T05:48:14;99886.59;;;21.84;100.00
7168;BME280;3625;51.762;14.320;2022-08-19T05:50:49;99882.44;;;21.91;100.00
7168;BME280;3625;51.762;14.320;2022-08-19T05:53:18;99892.19;;;22.05;100.00
7168;BME280;3625;51.762;14.320;2022-08-19T05:55:47;99861.84;;;21.90;100.00
7168;BME280;3625;51.762;14.320;2022-08-19T05:58:15;99905.28;;;22.20;100.00
7168;BME280;3625;51.762;14.320;2022-08-19T06:00:49;99904.56;;;22.30;100.00
7168;BME280;3625;51.762;14.320;2022-08-19T06:03:18;99915.72;;;22.47;100.00
7168;BME280;3625;51.762;14.320;2022-08-19T06:05:48;99897.59;;;22.38;100.00
7168;BME280;3625;51.762;14.320;2022-08-19T06:08:20;99920.38;;;22.79;100.00
7168;BME280;3625;51.762;14.320;2022-08-19T06:11:19;99913.47;;;22.97;100.00
7168;BME280;3625;51.762;14.320;2022-08-19T06:13:51;99912.97;;;22.92;100.00
7168;BME280;3625;51.762;14.320;2022-08-19T06:16:26;99885.91;;;22.71;100.00
7168;BME280;3625;51.762;14.320;2022-08-19T06:18:57;99929.38;;;23.11;100.00
7168;BME280;3625;51.762;14.320;2022-08-19T06:21:29;99944.28;;;23.26;100.00
7168;BME280;3625;51.762;14.320;2022-08-19T06:23:59;99932.56;;;23.16;100.00
7168;BME280;3625;51.762;14.320;2022-08-19T06:26:28;99931.63;;;22.95;100.00
7168;BME280;3625;51.762;14.320;2022-08-19T06:28:56;99930.94;;;22.82;100.00
7168;BME280;3625;51.762;14.320;2022-08-19T06:31:28;99924.03;;;22.89;100.00
7168;BME280;3625;51.762;14.320;2022-08-19T06:33:59;99930.41;;;22.88;100.00
7168;BME280;3625;51.762;14.320;2022-08-19T06:36:34;99926.69;;;23.11;100.00
7168;BME280;3625;51.762;14.320;2022-08-19T06:39:06;99933.66;;;23.25;100.00
7168;BME280;3625;51.762;14.320;2022-08-19T06:41:37;99946.22;;;23.36;100.00
7168;BME280;3625;51.762;14.320;2022-08-19T06:44:18;99945.59;;;23.54;100.00
7168;BME280;3625;51.762;14.320;2022-08-19T06:46:48;99953.03;;;23.62;100.00
7168;BME280;3625;51.762;14.320;2022-08-19T06:49:21;99953.16;;;23.92;100.00
7168;BME280;3625;51.762;14.320;2022-08-19T06:51:51;99971.09;;;24.35;100.00
7168;BME280;3625;51.762;14.320;2022-08-19T06:54:20;99983.28;;;24.80;100.00
7168;BME280;3625;51.762;14.320;2022-08-19T06:56:57;99977.84;;;25.11;100.00
7168;BME280;3625;51.762;14.320;2022-08-19T06:59:31;99983.47;;;25.38;100.00
7168;BME280;3625;51.762;14.320;2022-08-19T07:02:04;99964.69;;;25.56;100.00
7168;BME280;3625;51.762;14.320;2022-08-19T07:04:35;99979.53;;;25.62;97.45
7168;BME280;3625;51.762;14.320;2022-08-19T07:07:14;99991.41;;;25.21;94.78
7168;BME280;3625;51.762;14.320;2022-08-19T07:09:52;100004.00;;;24.91;96.98
7168;BME280;3625;51.762;14.320;2022-08-19T07:12:27;99964.31;;;24.71;98.97
7168;BME280;3625;51.762;14.320;2022-08-19T07:14:57;99956.28;;;24.60;99.36
7168;BME280;3625;51.762;14.320;2022-08-19T07:17:27;100006.22;;;24.86;100.00
7168;BME280;3625;51.762;14.320;2022-08-19T07:20:02;100008.22;;;24.84;99.00
7168;BME280;3625;51.762;14.320;2022-08-19T07:22:37;99997.91;;;24.68;100.00
7168;BME280;3625;51.762;14.320;2022-08-19T07:25:09;100021.19;;;24.60;98.41
7168;BME280;3625;51.762;14.320;2022-08-19T07:27:38;100013.31;;;24.26;99.70
7168;BME280;3625;51.762;14.320;2022-08-19T07:30:13;100008.47;;;24.09;100.00
7168;BME280;3625;51.762;14.320;2022-08-19T07:32:43;100012.56;;;24.03;100.00
7168;BME280;3625;51.762;14.320;2022-08-19T07:35:12;100012.94;;;23.99;100.00
7168;BME280;3625;51.762;14.320;2022-08-19T07:37:42;100009.66;;;23.95;100.00
7168;BME280;3625;51.762;14.320;2022-08-19T07:40:12;100000.72;;;23.84;100.00
7168;BME280;3625;51.762;14.320;2022-08-19T07:42:41;99988.63;;;23.67;100.00
7168;BME280;3625;51.762;14.320;2022-08-19T07:45:11;100003.13;;;23.66;100.00
7168;BME280;3625;51.762;14.320;2022-08-19T07:47:40;100014.34;;;23.50;100.00
7168;BME280;3625;51.762;14.320;2022-08-19T07:50:18;99988.28;;;23.17;100.00
7168;BME280;3625;51.762;14.320;2022-08-19T07:52:49;100004.41;;;23.28;100.00
7168;BME280;3625;51.762;14.320;2022-08-19T07:55:23;100006.97;;;23.41;100.00
7168;BME280;3625;51.762;14.320;2022-08-19T07:58:10;99997.06;;;23.30;100.00
7168;BME280;3625;51.762;14.320;2022-08-19T08:00:39;100027.59;;;23.42;100.00
7168;BME280;3625;51.762;14.320;2022-08-19T08:03:09;100027.50;;;23.32;100.00
7168;BME280;3625;51.762;14.320;2022-08-19T08:05:38;100025.56;;;23.23;100.00
7168;BME280;3625;51.762;14.320;2022-08-19T08:08:27;99985.34;;;22.87;100.00
7168;BME280;3625;51.762;14.320;2022-08-19T08:11:16;100030.09;;;23.12;100.00
7168;BME280;3625;51.762;14.320;2022-08-19T08:13:48;100032.03;;;23.10;100.00
7168;BME280;3625;51.762;14.320;2022-08-19T08:16:28;100034.50;;;23.13;100.00
7168;BME280;3625;51.762;14.320;2022-08-19T08:18:59;100017.47;;;23.01;100.00
7168;BME280;3625;51.762;14.320;2022-08-19T08:21:34;100018.19;;;23.03;100.00
7168;BME280;3625;51.762;14.320;2022-08-19T08:24:04;99915.09;;;22.55;100.00
7168;BME280;3625;51.762;14.320;2022-08-19T08:26:33;100046.28;;;23.34;100.00
7168;BME280;3625;51.762;14.320;2022-08-19T08:29:03;100053.00;;;23.40;100.00
7168;BME280;3625;51.762;14.320;2022-08-19T08:31:40;100019.56;;;23.09;100.00
7168;BME280;3625;51.762;14.320;2022-08-19T08:34:11;99987.41;;;22.83;100.00
7168;BME280;3625;51.762;14.320;2022-08-19T08:36:44;100051.56;;;23.24;100.00
7168;BME280;3625;51.762;14.320;2022-08-19T08:39:18;100056.56;;;23.29;100.00
7168;BME280;3625;51.762;14.320;2022-08-19T08:42:08;100031.97;;;23.00;100.00
7168;BME280;3625;51.762;14.320;2022-08-19T08:44:53;100033.44;;;22.82;100.00
7168;BME280;3625;51.762;14.320;2022-08-19T08:47:38;100070.47;;;23.24;100.00
7168;BME280;3625;51.762;14.320;2022-08-19T08:50:16;100063.56;;;23.43;100.00
7168;BME280;3625;51.762;14.320;2022-08-19T08:52:51;100031.41;;;23.28;100.00
7168;BME280;3625;51.762;14.320;2022-08-19T08:55:27;100039.63;;;23.38;100.00
7168;BME280;3625;51.762;14.320;2022-08-19T08:58:07;100060.06;;;23.74;100.00
7168;BME280;3625;51.762;14.320;2022-08-19T09:00:45;100055.84;;;24.13;100.00
7168;BME280;3625;51.762;14.320;2022-08-19T09:03:19;100006.94;;;24.16;100.00
7168;BME280;3625;51.762;14.320;2022-08-19T09:05:59;100069.34;;;24.87;99.03
7168;BME280;3625;51.762;14.320;2022-08-19T09:08:45;100042.16;;;24.67;96.74
7168;BME280;3625;51.762;14.320;2022-08-19T09:11:29;100065.84;;;24.96;97.66
7168;BME280;3625;51.762;14.320;2022-08-19T09:14:24;100065.81;;;25.26;94.34
7168;BME280;3625;51.762;14.320;2022-08-19T09:17:18;100065.78;;;25.56;94.95
7168;BME280;3625;51.762;14.320;2022-08-19T09:19:58;100063.81;;;25.59;90.34
7168;BME280;3625;51.762;14.320;2022-08-19T09:22:32;100066.56;;;25.87;91.11
7168;BME280;3625;51.762;14.320;2022-08-19T09:25:01;100065.03;;;26.33;89.91
7168;BME280;3625;51.762;14.320;2022-08-19T09:27:32;100051.72;;;26.49;88.68
7168;BME280;3625;51.762;14.320;2022-08-19T09:30:14;100058.19;;;26.19;85.01
7168;BME280;3625;51.762;14.320;2022-08-19T09:32:44;100064.56;;;25.80;86.94
7168;BME280;3625;51.762;14.320;2022-08-19T09:35:20;100069.25;;;25.78;88.55
7168;BME280;3625;51.762;14.320;2022-08-19T09:37:51;100060.72;;;25.73;89.03
7168;BME280;3625;51.762;14.320;2022-08-19T09:40:26;100077.06;;;25.62;89.06
7168;BME280;3625;51.762;14.320;2022-08-19T09:42:58;100086.31;;;25.49;90.13
7168;BME280;3625;51.762;14.320;2022-08-19T09:45:39;100082.53;;;25.31;90.38
7168;BME280;3625;51.762;14.320;2022-08-19T09:48:08;100088.03;;;25.20;90.59
7168;BME280;3625;51.762;14.320;2022-08-19T09:50:45;100075.06;;;25.14;91.14
7168;BME280;3625;51.762;14.320;2022-08-19T09:53:19;100077.69;;;25.25;91.44
7168;BME280;3625;51.762;14.320;2022-08-19T09:55:52;100080.81;;;25.30;91.45
7168;BME280;3625;51.762;14.320;2022-08-19T09:58:24;100071.06;;;25.18;90.99
7168;BME280;3625;51.762;14.320;2022-08-19T10:00:55;100053.81;;;24.89;92.20
7168;BME280;3625;51.762;14.320;2022-08-19T10:03:24;100065.78;;;24.86;93.09
7168;BME280;3625;51.762;14.320;2022-08-19T10:05:58;100052.59;;;24.72;93.71
7168;BME280;3625;51.762;14.320;2022-08-19T10:08:31;100075.94;;;24.94;93.96
7168;BME280;3625;51.762;14.320;2022-08-19T10:11:03;100077.41;;;24.98;93.27
7168;BME280;3625;51.762;14.320;2022-08-19T10:13:54;100046.34;;;24.71;93.34
7168;BME280;3625;51.762;14.320;2022-08-19T10:16:24;100061.47;;;24.83;94.09
7168;BME280;3625;51.762;14.320;2022-08-19T10:18:57;100042.69;;;24.82;93.97
7168;BME280;3625;51.762;14.320;2022-08-19T10:21:32;100071.53;;;24.93;93.60
7168;BME280;3625;51.762;14.320;2022-08-19T10:24:04;100062.72;;;25.00;93.07
7168;BME280;3625;51.762;14.320;2022-08-19T10:26:39;100068.47;;;25.07;93.47
7168;BME280;3625;51.762;14.320;2022-08-19T10:29:10;100075.91;;;25.14;92.06
7168;BME280;3625;51.762;14.320;2022-08-19T10:31:59;100057.50;;;25.08;92.79
7168;BME280;3625;51.762;14.320;2022-08-19T10:34:30;100069.88;;;25.41;92.27
7168;BME280;3625;51.762;14.320;2022-08-19T10:36:59;100041.34;;;25.37;90.20
7168;BME280;3625;51.762;14.320;2022-08-19T10:39:30;99915.31;;;24.34;90.11
7168;BME280;3625;51.762;14.320;2022-08-19T10:42:10;100074.72;;;24.98;92.38
7168;BME280;3625;51.762;14.320;2022-08-19T10:44:42;100073.44;;;25.02;93.54
7168;BME280;3625;51.762;14.320;2022-08-19T10:47:11;100086.63;;;25.26;91.74
7168;BME280;3625;51.762;14.320;2022-08-19T10:49:52;100096.06;;;25.31;91.43
7168;BME280;3625;51.762;14.320;2022-08-19T10:52:40;100089.31;;;25.16;91.47
7168;BME280;3625;51.762;14.320;2022-08-19T10:55:19;100100.19;;;24.95;92.67
7168;BME280;3625;51.762;14.320;2022-08-19T10:58:11;100105.25;;;24.89;93.98
7168;BME280;3625;51.762;14.320;2022-08-19T11:00:42;100089.34;;;24.74;94.16
7168;BME280;3625;51.762;14.320;2022-08-19T11:03:11;100124.13;;;25.00;94.42
7168;BME280;3625;51.762;14.320;2022-08-19T11:05:40;100124.72;;;25.03;93.42
7168;BME280;3625;51.762;14.320;2022-08-19T11:08:09;100120.84;;;24.96;93.13
7168;BME280;3625;51.762;14.320;2022-08-19T11:10:52;100122.56;;;24.97;93.58
7168;BME280;3625;51.762;14.320;2022-08-19T11:13:25;100121.53;;;25.19;93.46
7168;BME280;3625;51.762;14.320;2022-08-19T11:16:02;100109.75;;;25.30;91.69
7168;BME280;3625;51.762;14.320;2022-08-19T11:18:39;100024.41;;;24.95;91.07
7168;BME280;3625;51.762;14.320;2022-08-19T11:21:13;100108.91;;;25.60;90.29
7168;BME280;3625;51.762;14.320;2022-08-19T11:23:45;100131.66;;;25.57;89.22
7168;BME280;3625;51.762;14.320;2022-08-19T11:26:16;100131.38;;;25.50;90.22
7168;BME280;3625;51.762;14.320;2022-08-19T11:28:46;100135.34;;;25.46;90.48
7168;BME280;3625;51.762;14.320;2022-08-19T11:31:19;100145.56;;;25.43;91.20
7168;BME280;3625;51.762;14.320;2022-08-19T11:33:51;100150.81;;;25.35;91.50
7168;BME280;3625;51.762;14.320;2022-08-19T11:36:22;100130.59;;;25.08;91.60
7168;BME280;3625;51.762;14.320;2022-08-19T11:38:51;100158.25;;;25.12;92.64
7168;BME280;3625;51.762;14.320;2022-08-19T11:41:23;100154.25;;;25.06;93.50
7168;BME280;3625;51.762;14.320;2022-08-19T11:43:52;100158.06;;;25.04;93.61
7168;BME280;3625;51.762;14.320;2022-08-19T11:46:26;100162.31;;;24.97;93.81
7168;BME280;3625;51.762;14.320;2022-08-19T11:48:57;100154.81;;;24.89;94.61
7168;BME280;3625;51.762;14.320;2022-08-19T11:51:27;100152.06;;;24.79;94.61
7168;BME280;3625;51.762;14.320;2022-08-19T11:53:58;100105.41;;;24.46;95.03
7168;BME280;3625;51.762;14.320;2022-08-19T11:56:28;100160.06;;;24.81;95.31
7168;BME280;3625;51.762;14.320;2022-08-19T11:58:57;100167.50;;;24.89;95.43
7168;BME280;3625;51.762;14.320;2022-08-19T12:01:27;100178.69;;;24.95;95.17
7168;BME280;3625;51.762;14.320;2022-08-19T12:03:57;100172.16;;;24.98;94.76
7168;BME280;3625;51.762;14.320;2022-08-19T12:06:30;100175.31;;;25.03;94.70
7168;BME280;3625;51.762;14.320;2022-08-19T12:09:05;100169.03;;;25.02;94.49
7168;BME280;3625;51.762;14.320;2022-08-19T12:11:34;100174.88;;;24.98;94.54
7168;BME280;3625;51.762;14.320;2022-08-19T12:14:04;100158.72;;;24.75;94.56
7168;BME280;3625;51.762;14.320;2022-08-19T12:16:34;100168.84;;;24.73;95.47
7168;BME280;3625;51.762;14.320;2022-08-19T12:19:15;100172.56;;;24.61;96.43
7168;BME280;3625;51.762;14.320;2022-08-19T12:21:49;100136.81;;;24.26;96.52
7168;BME280;3625;51.762;14.320;2022-08-19T12:24:19;100075.28;;;23.86;96.95
7168;BME280;3625;51.762;14.320;2022-08-19T12:26:50;100173.06;;;24.34;97.48
7168;BME280;3625;51.762;14.320;2022-08-19T12:29:21;100159.06;;;24.29;97.97
7168;BME280;3625;51.762;14.320;2022-08-19T12:31:59;100170.69;;;24.41;98.17
7168;BME280;3625;51.762;14.320;2022-08-19T12:34:31;100167.84;;;24.42;98.93
7168;BME280;3625;51.762;14.320;2022-08-19T12:37:04;100157.91;;;24.43;99.75
7168;BME280;3625;51.762;14.320;2022-08-19T12:39:38;100173.03;;;24.66;99.48
7168;BME280;3625;51.762;14.320;2022-08-19T12:42:09;100150.50;;;24.66;99.34
7168;BME280;3625;51.762;14.320;2022-08-19T12:44:41;100173.72;;;25.00;98.72
7168;BME280;3625;51.762;14.320;2022-08-19T12:47:13;99957.88;;;23.79;99.37
7168;BME280;3625;51.762;14.320;2022-08-19T12:49:46;100183.19;;;25.06;99.51
7168;BME280;3625;51.762;14.320;2022-08-19T12:52:23;100153.56;;;24.72;99.42
7168;BME280;3625;51.762;14.320;2022-08-19T12:54:53;100191.66;;;24.80;100.00
7168;BME280;3625;51.762;14.320;2022-08-19T12:57:29;100110.91;;;24.23;100.00
7168;BME280;3625;51.762;14.320;2022-08-19T13:00:05;100181.78;;;24.59;100.00
7168;BME280;3625;51.762;14.320;2022-08-19T13:02:38;100180.94;;;24.58;100.00
7168;BME280;3625;51.762;14.320;2022-08-19T13:05:10;100177.97;;;24.61;100.00
7168;BME280;3625;51.762;14.320;2022-08-19T13:07:40;100177.56;;;24.66;100.00
7168;BME280;3625;51.762;14.320;2022-08-19T13:10:15;99952.16;;;23.29;100.00
7168;BME280;3625;51.762;14.320;2022-08-19T13:12:47;100159.56;;;24.55;100.00
7168;BME280;3625;51.762;14.320;2022-08-19T13:15:19;100200.34;;;24.95;98.93
7168;BME280;3625;51.762;14.320;2022-08-19T13:17:53;100164.97;;;25.08;94.95
7168;BME280;3625;51.762;14.320;2022-08-19T13:20:25;100198.53;;;25.56;92.59
7168;BME280;3625;51.762;14.320;2022-08-19T13:22:54;100201.53;;;25.84;91.66
7168;BME280;3625;51.762;14.320;2022-08-19T13:25:24;100199.59;;;26.05;89.39
7168;BME280;3625;51.762;14.320;2022-08-19T13:27:54;100207.59;;;26.07;88.93
7168;BME280;3625;51.762;14.320;2022-08-19T13:30:23;100201.66;;;26.32;88.60
7168;BME280;3625;51.762;14.320;2022-08-19T13:33:11;100205.13;;;26.44;87.10